createdAt,value
2019-02-09T00:01:41.196Z,88.90
2019-02-09T00:04:11.512Z,89.40
2019-02-09T00:06:41.826Z,88.80
2019-02-09T00:09:11.754Z,89.50
2019-02-09T00:11:41.990Z,90.00
2019-02-09T00:14:12.446Z,89.80
2019-02-09T00:16:42.546Z,90.00
2019-02-09T00:19:12.883Z,89.20
2019-02-09T00:21:43.005Z,90.10
2019-02-09T00:24:13.166Z,90.00
2019-02-09T00:26:42.768Z,90.40
2019-02-09T00:29:13.302Z,90.40
2019-02-09T00:31:43.994Z,91.00
2019-02-09T00:34:14.598Z,90.10
2019-02-09T00:36:45.252Z,90.70
2019-02-09T00:39:15.819Z,90.90
2019-02-09T00:41:45.700Z,90.90
2019-02-09T00:44:16.252Z,91.20
2019-02-09T00:46:46.678Z,91.10
2019-02-09T00:49:17.297Z,90.80
2019-02-09T00:51:47.824Z,90.90
2019-02-09T00:54:17.980Z,89.60
2019-02-09T00:56:48.584Z,90.40
2019-02-09T00:59:18.804Z,90.20
2019-02-09T01:01:49.274Z,89.10
2019-02-09T01:04:19.583Z,89.80
2019-02-09T01:06:50.150Z,89.70
2019-02-09T01:09:20.012Z,89.80
2019-02-09T01:11:50.313Z,89.40
2019-02-09T01:14:20.510Z,88.10
2019-02-09T01:16:50.951Z,88.80
2019-02-09T01:19:21.324Z,88.50
2019-02-09T01:21:51.134Z,89.20
2019-02-09T01:24:21.608Z,89.40
2019-02-09T01:26:52.216Z,89.30
2019-02-09T01:29:22.522Z,90.00
2019-02-09T01:31:52.968Z,89.00
2019-02-09T01:34:23.289Z,89.60
2019-02-09T01:36:53.761Z,88.50
2019-02-09T01:39:24.360Z,89.60
2019-02-09T01:41:54.576Z,88.60
2019-02-09T01:44:24.498Z,88.90
2019-02-09T01:46:55.017Z,90.00
2019-02-09T01:49:24.836Z,89.40
2019-02-09T01:51:54.722Z,89.50
2019-02-09T01:54:24.970Z,89.30
2019-02-09T01:56:55.417Z,90.00
2019-02-09T01:59:25.898Z,90.10
2019-02-09T02:01:56.558Z,89.80
2019-02-09T02:04:27.071Z,90.50
2019-02-09T02:06:57.322Z,90.40
2019-02-09T02:09:27.794Z,90.60
2019-02-09T02:11:57.972Z,90.50
2019-02-09T02:14:28.618Z,90.40
2019-02-09T02:16:58.767Z,90.60
2019-02-09T02:19:29.230Z,90.40
2019-02-09T02:21:59.099Z,90.50
2019-02-09T02:24:29.367Z,90.50
2019-02-09T02:26:59.893Z,90.40
2019-02-09T02:29:30.586Z,90.40
2019-02-09T02:32:01.166Z,89.30
2019-02-09T02:34:31.456Z,88.80
2019-02-09T02:37:01.666Z,88.50
2019-02-09T02:39:32.200Z,90.00
2019-02-09T02:42:02.791Z,89.90
2019-02-09T02:44:33.515Z,90.20
2019-02-09T02:47:03.688Z,90.40
2019-02-09T02:49:34.254Z,90.40
2019-02-09T02:52:04.455Z,90.70
2019-02-09T02:54:35.050Z,91.00
2019-02-09T02:57:05.724Z,91.00
2019-02-09T02:59:36.198Z,91.10
2019-02-09T03:02:06.862Z,91.10
2019-02-09T03:04:37.071Z,91.10
2019-02-09T03:07:07.602Z,91.50
2019-02-09T03:09:37.560Z,91.50
2019-02-09T03:12:07.784Z,91.60
2019-02-09T03:14:38.356Z,91.50
2019-02-09T03:17:09.068Z,91.70
2019-02-09T03:19:39.650Z,91.60
2019-02-09T03:22:10.196Z,91.70
2019-02-09T03:24:40.440Z,91.80
2019-02-09T03:27:11.084Z,91.80
2019-02-09T03:29:41.263Z,91.70
2019-02-09T03:32:11.897Z,91.70
2019-02-09T03:34:42.598Z,91.60
2019-02-09T03:37:13.195Z,91.80
2019-02-09T03:39:43.768Z,92.00
2019-02-09T03:42:13.958Z,91.90
2019-02-09T03:44:44.189Z,91.80
2019-02-09T03:47:14.642Z,92.00
2019-02-09T03:49:44.963Z,91.70
2019-02-09T03:52:15.430Z,91.70
2019-02-09T03:54:45.290Z,91.80
2019-02-09T03:57:16.020Z,91.70
2019-02-09T03:59:46.598Z,91.40
2019-02-09T04:02:17.197Z,91.80
2019-02-09T04:04:47.472Z,91.50
2019-02-09T04:07:17.601Z,91.70
2019-02-09T04:09:47.490Z,91.60
2019-02-09T04:12:17.369Z,91.80
2019-02-09T04:14:47.389Z,91.80
2019-02-09T04:17:17.908Z,91.90
2019-02-09T04:19:48.507Z,92.10
2019-02-09T04:22:18.987Z,92.20
2019-02-09T04:24:49.018Z,91.90
2019-02-09T04:27:18.841Z,92.40
2019-02-09T04:29:49.371Z,91.90
2019-02-09T04:32:19.843Z,92.10
2019-02-09T04:34:49.713Z,92.20
2019-02-09T04:37:19.974Z,92.40
2019-02-09T04:39:49.852Z,92.10
2019-02-09T04:42:39.317Z,92.10
2019-02-09T04:45:10.256Z,92.10
2019-02-09T04:47:40.736Z,92.40
2019-02-09T04:50:11.598Z,92.40
2019-02-09T04:52:42.167Z,92.20
2019-02-09T04:55:15.444Z,92.10
2019-02-09T04:57:45.784Z,91.90
2019-02-09T05:00:19.184Z,91.90
2019-02-09T05:02:49.520Z,91.80
2019-02-09T05:05:19.965Z,91.90
2019-02-09T05:07:50.402Z,92.00
2019-02-09T05:10:21.509Z,91.60
2019-02-09T05:12:51.740Z,91.70
2019-02-09T05:15:42.012Z,91.50
2019-02-09T05:18:11.778Z,91.30
2019-02-09T05:20:41.332Z,91.70
2019-02-09T05:23:11.564Z,92.20
2019-02-09T05:25:41.391Z,92.50
2019-02-09T05:28:11.921Z,92.60
2019-02-09T05:30:42.388Z,92.60
2019-02-09T05:33:12.918Z,92.70
2019-02-09T05:35:43.508Z,92.70
2019-02-09T05:38:13.318Z,92.80
2019-02-09T05:40:43.683Z,93.20
2019-02-09T05:43:14.222Z,93.70
2019-02-09T05:45:44.592Z,94.00
2019-02-09T05:48:14.826Z,94.30
2019-02-09T05:50:45.329Z,94.60
2019-02-09T05:53:15.331Z,94.70
2019-02-09T05:55:45.812Z,94.70
2019-02-09T05:58:16.042Z,94.50
2019-02-09T06:00:45.966Z,94.40
2019-02-09T06:03:16.205Z,94.40
2019-02-09T06:05:46.434Z,94.40
2019-02-09T06:08:16.956Z,94.40
2019-02-09T06:10:47.558Z,94.40
2019-02-09T06:13:18.045Z,94.30
2019-02-09T06:15:48.233Z,94.10
2019-02-09T06:18:18.592Z,94.30
2019-02-09T06:20:48.734Z,94.40
2019-02-09T06:23:19.312Z,94.40
2019-02-09T06:25:49.688Z,94.30
2019-02-09T06:28:20.274Z,94.10
2019-02-09T06:30:50.550Z,94.00
2019-02-09T06:33:20.556Z,94.10
2019-02-09T06:35:51.088Z,94.30
2019-02-09T06:38:20.872Z,94.30
2019-02-09T06:40:51.128Z,94.40
2019-02-09T06:43:21.569Z,94.40
2019-02-09T06:45:52.004Z,94.30
2019-02-09T06:48:27.152Z,94.10
2019-02-09T06:51:02.104Z,94.30
2019-02-09T06:53:32.750Z,94.40
2019-02-09T06:56:03.329Z,94.50
2019-02-09T06:58:33.942Z,94.50
2019-02-09T07:01:04.442Z,94.80
2019-02-09T07:03:34.658Z,95.00
2019-02-09T07:06:05.288Z,95.00
2019-02-09T07:08:35.846Z,95.00
2019-02-09T07:11:06.571Z,95.00
2019-02-09T07:13:36.475Z,95.20
2019-02-09T07:16:08.494Z,95.20
2019-02-09T07:18:38.288Z,95.30
2019-02-09T07:21:08.750Z,95.50
2019-02-09T07:23:39.060Z,95.60
2019-02-09T07:26:09.524Z,95.50
2019-02-09T07:28:39.740Z,95.70
2019-02-09T07:31:10.019Z,95.60
2019-02-09T07:33:40.234Z,95.70
2019-02-09T07:36:10.822Z,95.70
2019-02-09T07:38:41.598Z,95.80
2019-02-09T07:41:11.831Z,95.80
2019-02-09T07:43:42.406Z,96.50
2019-02-09T07:46:13.004Z,96.10
2019-02-09T07:48:43.594Z,96.10
2019-02-09T07:51:13.558Z,95.80
2019-02-09T07:53:44.172Z,95.70
2019-02-09T07:56:14.834Z,95.40
2019-02-09T07:58:44.782Z,95.70
2019-02-09T08:01:15.324Z,95.30
2019-02-09T08:03:45.808Z,95.50
2019-02-09T08:06:16.426Z,95.70
2019-02-09T08:08:47.076Z,95.70
2019-02-09T08:11:17.305Z,95.90
2019-02-09T08:13:48.244Z,95.90
2019-02-09T08:16:18.478Z,96.00
2019-02-09T08:18:48.938Z,96.00
2019-02-09T08:21:19.218Z,96.20
2019-02-09T08:23:49.554Z,95.80
2019-02-09T08:26:19.814Z,95.60
2019-02-09T08:28:50.362Z,95.60
2019-02-09T08:31:20.993Z,95.50
2019-02-09T08:33:51.643Z,95.60
2019-02-09T08:36:22.001Z,95.60
2019-02-09T08:38:52.178Z,95.70
2019-02-09T08:41:22.416Z,95.70
2019-02-09T08:43:52.672Z,96.00
2019-02-09T08:46:22.494Z,96.20
2019-02-09T08:48:52.826Z,95.70
2019-02-09T08:51:23.001Z,95.60
2019-02-09T08:53:53.134Z,95.30
2019-02-09T08:56:23.910Z,95.70
2019-02-09T08:58:54.474Z,95.80
2019-02-09T09:01:24.831Z,95.80
2019-02-09T09:03:55.524Z,95.40
2019-02-09T09:06:25.782Z,95.20
2019-02-09T09:08:56.292Z,94.90
2019-02-09T09:11:26.899Z,95.00
2019-02-09T09:13:57.482Z,95.20
2019-02-09T09:16:28.060Z,95.10
2019-02-09T09:18:58.648Z,94.90
2019-02-09T09:21:28.248Z,94.60
2019-02-09T09:23:58.833Z,94.50
2019-02-09T09:26:29.394Z,94.10
2019-02-09T09:28:59.692Z,94.10
2019-02-09T09:31:29.578Z,93.80
2019-02-09T09:34:00.196Z,93.90
2019-02-09T09:36:30.788Z,93.30
2019-02-09T09:39:01.204Z,92.70
2019-02-09T09:41:31.014Z,91.30
2019-02-09T09:44:01.280Z,91.10
2019-02-09T09:46:31.796Z,91.20
2019-02-09T09:49:01.592Z,90.20
2019-02-09T09:51:31.618Z,89.20
2019-02-09T09:54:01.829Z,86.50
2019-02-09T09:56:32.181Z,86.80
2019-02-09T09:59:02.654Z,85.60
2019-02-09T10:01:32.499Z,86.50
2019-02-09T10:04:02.730Z,82.00
2019-02-09T10:06:32.979Z,80.10
2019-02-09T10:09:03.598Z,80.00
2019-02-09T10:11:33.762Z,80.30
2019-02-09T10:14:08.743Z,80.80
2019-02-09T10:16:36.020Z,80.70
2019-02-09T10:19:05.986Z,80.00
2019-02-09T10:21:36.210Z,79.80
2019-02-09T10:24:06.154Z,81.50
2019-02-09T10:26:36.506Z,79.70
2019-02-09T10:29:07.139Z,80.80
2019-02-09T10:31:37.381Z,80.80
2019-02-09T10:34:07.427Z,81.60
2019-02-09T10:36:39.036Z,83.00
2019-02-09T10:39:10.841Z,83.40
2019-02-09T10:41:41.282Z,83.80
2019-02-09T10:44:11.962Z,83.80
2019-02-09T10:46:43.907Z,85.70
2019-02-09T10:49:14.459Z,84.10
2019-02-09T10:51:44.682Z,82.50
2019-02-09T10:54:14.496Z,81.50
2019-02-09T10:56:44.850Z,83.20
2019-02-09T10:59:14.990Z,82.50
2019-02-09T11:01:45.444Z,82.30
2019-02-09T11:04:16.336Z,80.40
2019-02-09T11:06:46.551Z,80.30
2019-02-09T11:09:21.340Z,80.40
2019-02-09T11:11:51.550Z,81.60
2019-02-09T11:14:22.168Z,80.50
2019-02-09T11:16:52.930Z,81.10
2019-02-09T11:19:23.454Z,80.50
2019-02-09T11:21:53.727Z,79.60
2019-02-09T11:24:23.646Z,80.60
2019-02-09T11:26:53.982Z,79.00
2019-02-09T11:29:24.274Z,78.20
2019-02-09T11:31:55.464Z,78.30
2019-02-09T11:34:25.713Z,78.00
2019-02-09T11:36:56.286Z,78.10
2019-02-09T11:39:27.020Z,79.30
2019-02-09T11:41:56.864Z,78.50
2019-02-09T11:44:27.430Z,77.90
2019-02-09T11:46:57.701Z,76.10
2019-02-09T11:49:27.882Z,77.50
2019-02-09T11:51:58.156Z,77.10
2019-02-09T11:54:28.821Z,78.90
2019-02-09T11:56:58.612Z,84.20
2019-02-09T11:59:29.198Z,85.90
2019-02-09T12:01:59.789Z,86.10
2019-02-09T12:04:29.696Z,85.00
2019-02-09T12:07:00.301Z,83.20
2019-02-09T12:09:30.664Z,81.30
2019-02-09T12:12:01.257Z,79.60
2019-02-09T12:14:31.535Z,78.40
2019-02-09T12:17:01.428Z,77.50
2019-02-09T12:19:31.960Z,75.60
2019-02-09T12:22:02.470Z,76.10
2019-02-09T12:24:32.722Z,74.90
2019-02-09T12:27:03.086Z,71.60
2019-02-09T12:29:33.397Z,69.70
2019-02-09T12:32:04.018Z,70.90
2019-02-09T12:34:34.371Z,69.60
2019-02-09T12:37:05.004Z,68.90
2019-02-09T12:39:35.712Z,70.70
2019-02-09T12:42:05.585Z,68.40
2019-02-09T12:44:36.188Z,68.30
2019-02-09T12:47:06.801Z,69.20
2019-02-09T12:49:36.859Z,68.50
2019-02-09T12:52:07.150Z,68.80
2019-02-09T12:54:37.116Z,68.90
2019-02-09T12:57:07.241Z,70.20
2019-02-09T12:59:37.446Z,69.60
2019-02-09T13:02:08.043Z,69.70
2019-02-09T13:04:38.522Z,69.80
2019-02-09T13:07:08.546Z,69.80
2019-02-09T13:09:38.922Z,69.50
2019-02-09T13:12:09.104Z,68.90
2019-02-09T13:14:40.220Z,68.70
2019-02-09T13:17:10.820Z,69.60
2019-02-09T13:19:41.044Z,68.70
2019-02-09T13:22:10.917Z,69.50
2019-02-09T13:24:41.290Z,69.40
2019-02-09T13:27:11.846Z,69.50
2019-02-09T13:29:42.290Z,70.40
2019-02-09T13:32:12.712Z,69.80
2019-02-09T13:34:43.272Z,70.60
2019-02-09T13:37:13.854Z,70.40
2019-02-09T13:39:44.168Z,69.30
2019-02-09T13:42:14.390Z,69.20
2019-02-09T13:44:44.905Z,69.40
2019-02-09T13:47:15.451Z,70.60
2019-02-09T13:49:45.690Z,70.90
2019-02-09T13:52:15.509Z,70.80
2019-02-09T13:54:46.040Z,71.50
2019-02-09T13:57:16.570Z,72.00
2019-02-09T13:59:46.756Z,71.90
2019-02-09T14:02:17.434Z,72.40
2019-02-09T14:04:47.346Z,73.00
2019-02-09T14:07:17.669Z,73.40
2019-02-09T14:09:48.017Z,72.50
2019-02-09T14:12:17.914Z,72.30
2019-02-09T14:14:48.401Z,71.90
2019-02-09T14:17:18.686Z,71.20
2019-02-09T14:19:49.308Z,70.80
2019-02-09T14:22:19.507Z,71.70
2019-02-09T14:24:50.055Z,70.30
2019-02-09T14:27:22.131Z,70.20
2019-02-09T14:29:52.388Z,71.60
2019-02-09T14:32:22.736Z,70.70
2019-02-09T14:34:53.431Z,71.60
2019-02-09T14:37:22.908Z,72.50
2019-02-09T14:39:53.497Z,71.60
2019-02-09T14:42:23.809Z,72.00
2019-02-09T14:44:54.416Z,72.40
2019-02-09T14:47:24.844Z,73.50
2019-02-09T14:49:55.102Z,73.70
2019-02-09T14:52:25.410Z,73.80
2019-02-09T14:54:55.735Z,75.00
2019-02-09T14:57:26.298Z,74.70
2019-02-09T14:59:56.862Z,76.00
2019-02-09T15:02:27.444Z,75.10
2019-02-09T15:04:57.241Z,75.40
2019-02-09T15:07:27.405Z,75.70
2019-02-09T15:09:57.619Z,76.00
2019-02-09T15:12:27.914Z,76.00
2019-02-09T15:14:58.404Z,76.00
2019-02-09T15:17:28.698Z,76.60
2019-02-09T15:19:58.916Z,77.80
2019-02-09T15:22:28.720Z,76.90
2019-02-09T15:24:59.359Z,77.30
2019-02-09T15:27:29.916Z,78.10
2019-02-09T15:30:00.415Z,78.70
2019-02-09T15:32:30.918Z,78.90
2019-02-09T15:35:00.835Z,78.80
2019-02-09T15:37:31.286Z,79.70
2019-02-09T15:40:01.533Z,80.00
2019-02-09T15:42:32.168Z,78.80
2019-02-09T15:45:02.364Z,78.70
2019-02-09T15:47:32.563Z,78.60
2019-02-09T15:50:03.259Z,79.20
2019-02-09T15:52:33.523Z,77.90
2019-02-09T15:55:04.334Z,77.40
2019-02-09T15:57:34.930Z,77.90
2019-02-09T16:00:06.035Z,77.60
2019-02-09T16:02:36.823Z,77.80
2019-02-09T16:05:08.111Z,79.10
2019-02-09T16:07:38.344Z,78.90
2019-02-09T16:10:09.204Z,79.20
2019-02-09T16:12:39.149Z,79.30
2019-02-09T16:15:12.002Z,79.80
2019-02-09T16:17:42.793Z,79.70
2019-02-09T16:20:16.822Z,80.40
2019-02-09T16:22:47.114Z,81.10
2019-02-09T16:25:17.862Z,81.80
2019-02-09T16:27:48.566Z,82.40
2019-02-09T16:30:21.483Z,82.70
2019-02-09T16:32:52.566Z,82.80
2019-02-09T16:35:23.275Z,82.40
2019-02-09T16:37:53.681Z,82.10
2019-02-09T16:40:26.006Z,82.40
2019-02-09T16:42:56.821Z,82.10
2019-02-09T16:45:45.850Z,82.10
2019-02-09T16:48:16.015Z,82.30
2019-02-09T16:50:46.375Z,82.70
2019-02-09T16:53:16.904Z,82.80
2019-02-09T16:55:47.047Z,83.20
2019-02-09T16:58:17.582Z,83.60
2019-02-09T17:00:48.213Z,84.30
2019-02-09T17:03:18.505Z,85.00
2019-02-09T17:05:49.189Z,85.30
2019-02-09T17:08:19.835Z,85.00
2019-02-09T17:10:50.267Z,86.10
2019-02-09T17:13:20.807Z,86.60
2019-02-09T17:15:51.309Z,87.00
2019-02-09T17:18:21.800Z,87.70
2019-02-09T17:20:53.019Z,88.00
2019-02-09T17:23:23.817Z,87.60
2019-02-09T17:25:54.155Z,87.90
2019-02-09T17:28:24.744Z,87.80
2019-02-09T17:30:55.425Z,87.50
2019-02-09T17:33:25.335Z,87.50
2019-02-09T17:35:55.250Z,86.60
2019-02-09T17:38:25.493Z,87.10
2019-02-09T17:40:56.084Z,87.80
2019-02-09T17:43:26.779Z,87.00
2019-02-09T17:46:03.327Z,87.40
2019-02-09T17:48:33.774Z,87.90
2019-02-09T17:51:03.967Z,89.00
2019-02-09T17:53:38.850Z,88.60
2019-02-09T17:56:09.085Z,88.60
2019-02-09T17:58:39.714Z,89.10
2019-02-09T18:01:14.733Z,88.50
2019-02-09T18:03:45.299Z,88.40
2019-02-09T18:06:15.554Z,88.00
2019-02-09T18:08:45.829Z,88.20
2019-02-09T18:11:15.755Z,88.80
2019-02-09T18:13:46.057Z,88.50
2019-02-09T18:16:16.216Z,89.20
2019-02-09T18:18:46.530Z,88.40
2019-02-09T18:21:17.213Z,88.30
2019-02-09T18:23:47.774Z,89.50
2019-02-09T18:26:18.068Z,89.50
2019-02-09T18:28:48.611Z,89.20
2019-02-09T18:31:18.623Z,87.90
2019-02-09T18:33:49.504Z,87.60
2019-02-09T18:36:20.323Z,87.10
2019-02-09T18:38:50.589Z,87.20
2019-02-09T18:41:20.853Z,87.10
2019-02-09T18:43:50.788Z,87.40
2019-02-09T18:46:21.630Z,87.50
2019-02-09T18:48:52.653Z,88.60
2019-02-09T18:51:23.434Z,89.50
2019-02-09T18:53:54.165Z,89.60
2019-02-09T18:56:26.988Z,89.80
2019-02-09T18:58:59.480Z,90.20
2019-02-09T19:01:30.467Z,90.40
2019-02-09T19:04:01.103Z,90.30
2019-02-09T19:06:31.679Z,90.40
2019-02-09T19:09:01.917Z,90.40
2019-02-09T19:11:32.583Z,90.30
2019-02-09T19:14:02.736Z,90.30
2019-02-09T19:16:33.360Z,90.60
2019-02-09T19:19:04.029Z,90.10
2019-02-09T19:21:34.428Z,90.10
2019-02-09T19:24:04.817Z,90.30
2019-02-09T19:26:35.521Z,90.30
2019-02-09T19:29:05.975Z,90.80
2019-02-09T19:31:36.619Z,90.20
2019-02-09T19:34:06.543Z,89.60
2019-02-09T19:36:37.106Z,89.10
2019-02-09T19:39:10.079Z,88.90
2019-02-09T19:41:40.614Z,87.80
2019-02-09T19:44:10.807Z,88.10
2019-02-09T19:46:41.361Z,88.90
2019-02-09T19:49:11.514Z,88.90
2019-02-09T19:51:42.106Z,88.60
2019-02-09T19:54:12.018Z,87.50
2019-02-09T19:56:43.154Z,87.50
2019-02-09T19:59:13.454Z,86.10
2019-02-09T20:01:44.128Z,86.50
2019-02-09T20:04:14.456Z,87.00
2019-02-09T20:06:44.631Z,87.00
2019-02-09T20:09:14.918Z,87.30
2019-02-09T20:11:45.619Z,88.00
2019-02-09T20:14:34.882Z,87.70
2019-02-09T20:17:05.506Z,88.00
2019-02-09T20:19:36.112Z,88.60
2019-02-09T20:22:06.668Z,88.80
2019-02-09T20:24:37.264Z,89.60
2019-02-09T20:27:07.483Z,88.90
2019-02-09T20:29:37.736Z,88.60
2019-02-09T20:32:08.329Z,89.80
2019-02-09T20:34:38.680Z,89.10
2019-02-09T20:37:09.105Z,89.70
2019-02-09T20:39:39.489Z,90.00
2019-02-09T20:42:09.660Z,89.60
2019-02-09T20:44:40.295Z,89.80
2019-02-09T20:47:10.601Z,90.00
2019-02-09T20:49:41.071Z,89.90
2019-02-09T20:52:11.855Z,90.10
2019-02-09T20:54:42.314Z,90.30
2019-02-09T20:57:12.509Z,90.30
2019-02-09T20:59:42.976Z,90.40
2019-02-09T21:02:13.465Z,90.30
2019-02-09T21:04:43.983Z,90.30
2019-02-09T21:07:14.487Z,90.00
2019-02-09T21:09:44.441Z,90.10
2019-02-09T21:12:14.562Z,90.20
2019-02-09T21:14:45.209Z,90.20
2019-02-09T21:17:15.913Z,90.30
2019-02-09T21:19:46.445Z,90.30
2019-02-09T21:22:17.009Z,90.30
2019-02-09T21:24:47.056Z,90.20
2019-02-09T21:27:17.694Z,90.30
2019-02-09T21:29:48.237Z,90.40
2019-02-09T21:32:18.826Z,90.40
2019-02-09T21:34:49.105Z,90.00
2019-02-09T21:37:19.115Z,90.30
2019-02-09T21:39:49.641Z,90.30
2019-02-09T21:42:20.166Z,90.40
2019-02-09T21:44:50.554Z,90.40
2019-02-09T21:47:21.084Z,90.30
2019-02-09T21:49:51.314Z,90.00
2019-02-09T21:52:21.515Z,90.20
2019-02-09T21:54:52.062Z,90.40
2019-02-09T21:57:22.560Z,90.50
2019-02-09T21:59:53.159Z,90.30
2019-02-09T22:02:23.305Z,90.60
2019-02-09T22:04:53.685Z,90.60
2019-02-09T22:07:24.058Z,90.70
2019-02-09T22:09:54.283Z,90.70
2019-02-09T22:12:24.291Z,90.80
2019-02-09T22:14:54.837Z,90.80
2019-02-09T22:17:25.200Z,90.80
2019-02-09T22:19:55.861Z,90.80
2019-02-09T22:22:26.355Z,90.80
2019-02-09T22:24:56.914Z,90.70
2019-02-09T22:27:27.047Z,90.90
2019-02-09T22:29:56.979Z,91.00
2019-02-09T22:32:27.403Z,91.10
2019-02-09T22:34:58.037Z,91.10
2019-02-09T22:37:28.391Z,91.00
2019-02-09T22:39:59.056Z,91.20
2019-02-09T22:42:29.411Z,91.40
2019-02-09T22:44:59.878Z,91.30
2019-02-09T22:47:30.469Z,91.40
2019-02-09T22:50:01.050Z,91.60
2019-02-09T22:52:31.573Z,91.70
2019-02-09T22:55:02.167Z,91.70
2019-02-09T22:57:32.742Z,92.00
2019-02-09T23:00:03.356Z,91.80
2019-02-09T23:02:33.971Z,91.70
2019-02-09T23:05:27.742Z,91.70
2019-02-09T23:07:57.959Z,91.80
2019-02-09T23:10:28.425Z,91.80
2019-02-09T23:12:59.036Z,92.10
2019-02-09T23:15:29.610Z,92.10
2019-02-09T23:18:00.231Z,92.40
2019-02-09T23:20:30.556Z,92.50
2019-02-09T23:23:01.269Z,92.40
2019-02-09T23:25:31.825Z,92.60
2019-02-09T23:28:02.233Z,92.70
2019-02-09T23:30:32.473Z,92.90
2019-02-09T23:33:03.063Z,93.00
2019-02-09T23:35:33.395Z,93.10
2019-02-09T23:38:02.988Z,93.70
2019-02-09T23:40:33.191Z,93.40
2019-02-09T23:43:03.889Z,93.50
2019-02-09T23:45:34.579Z,93.60
2019-02-09T23:48:05.096Z,93.70
2019-02-09T23:50:35.617Z,93.70
2019-02-09T23:53:06.167Z,93.50
2019-02-09T23:55:36.655Z,93.60
2019-02-09T23:58:07.055Z,93.60
